Time;durP1;ratioP1;P1;durP2;ratioP2;P2;SDS_P1;SDS_P2;PMS_P1;PMS_P2;Temp;Humidity;BMP_temperature;BMP_pressure;BME280_temperature;BME280_humidity;BME280_pressure;Samples;Min_cycle;Max_cycle;Signal;HPM_P1;HPM_P2
2021/03/18 00:00:19;;;;;;;5.20;3.03;;;7.50;54.80;;;;;;5071609;28;20674;-51
2021/03/18 00:02:46;;;;;;;8.40;3.60;;;7.50;54.40;;;;;;5071740;28;20681;-52
2021/03/18 00:05:13;;;;;;;3.43;3.10;;;7.50;54.10;;;;;;5071642;28;20656;-51
2021/03/18 00:07:41;;;;;;;4.73;3.30;;;7.40;54.00;;;;;;5068474;28;20752;-52
2021/03/18 00:10:08;;;;;;;4.13;3.50;;;7.40;53.90;;;;;;5079085;28;21224;-52
2021/03/18 00:12:35;;;;;;;6.23;3.70;;;7.40;53.90;;;;;;5074464;28;20660;-51
2021/03/18 00:15:04;;;;;;;4.50;3.40;;;7.30;53.70;;;;;;5069308;28;20689;-52
2021/03/18 00:17:31;;;;;;;4.23;2.80;;;7.40;53.80;;;;;;5070249;28;20733;-50
2021/03/18 00:19:58;;;;;;;3.57;3.27;;;7.40;54.00;;;;;;5070838;28;20647;-53
2021/03/18 00:22:27;;;;;;;4.30;3.23;;;7.40;54.60;;;;;;5070367;28;20723;-52
2021/03/18 00:24:54;;;;;;;3.20;2.90;;;7.30;55.30;;;;;;5071053;28;20650;-52
2021/03/18 00:27:21;;;;;;;5.20;3.37;;;7.30;55.20;;;;;;5070774;28;20626;-52
2021/03/18 00:29:48;;;;;;;11.13;4.53;;;7.40;54.90;;;;;;5071061;28;20708;-52
2021/03/18 00:32:15;;;;;;;4.80;3.20;;;7.30;54.40;;;;;;5070371;28;20720;-51
2021/03/18 00:34:42;;;;;;;4.53;4.13;;;7.30;54.00;;;;;;5070815;28;20710;-52
2021/03/18 00:37:08;;;;;;;4.73;4.23;;;7.20;54.00;;;;;;5071233;28;20659;-53
2021/03/18 00:39:35;;;;;;;5.23;3.87;;;7.20;54.10;;;;;;5070467;28;20650;-52
2021/03/18 00:42:02;;;;;;;5.17;3.40;;;7.10;53.90;;;;;;5070821;28;20685;-53
2021/03/18 00:44:29;;;;;;;5.33;3.33;;;7.20;54.30;;;;;;5069996;28;20868;-54
2021/03/18 00:46:56;;;;;;;4.50;3.57;;;7.20;54.00;;;;;;5070938;28;20664;-52
2021/03/18 00:49:23;;;;;;;4.10;3.57;;;7.20;53.80;;;;;;5069226;28;20661;-52
2021/03/18 00:51:50;;;;;;;4.30;3.40;;;7.20;53.90;;;;;;5069606;28;21022;-52
2021/03/18 00:54:16;;;;;;;6.07;3.57;;;7.20;53.90;;;;;;5070010;28;20676;-52
2021/03/18 00:56:43;;;;;;;3.43;3.10;;;7.20;53.90;;;;;;5069754;28;20694;-52
2021/03/18 00:59:10;;;;;;;5.03;3.93;;;7.20;54.10;;;;;;5061366;28;20654;-52
2021/03/18 01:01:37;;;;;;;4.30;3.90;;;7.20;54.40;;;;;;5065742;28;20686;-51
2021/03/18 01:04:05;;;;;;;5.03;4.43;;;7.20;54.70;;;;;;5070732;28;20654;-52
2021/03/18 01:06:31;;;;;;;4.13;3.23;;;7.20;54.50;;;;;;5070037;28;20661;-53
2021/03/18 01:08:59;;;;;;;4.50;3.50;;;7.20;54.40;;;;;;5070289;28;21213;-52
2021/03/18 01:11:26;;;;;;;5.60;4.60;;;7.20;54.30;;;;;;5068591;28;20673;-53
2021/03/18 01:13:55;;;;;;;3.43;3.13;;;7.20;54.30;;;;;;5070024;28;20657;-53
2021/03/18 01:16:22;;;;;;;6.90;3.10;;;7.20;54.20;;;;;;5070143;28;20674;-52
2021/03/18 01:18:50;;;;;;;5.10;3.23;;;7.20;54.10;;;;;;5070770;28;20618;-53
2021/03/18 01:21:18;;;;;;;5.10;3.33;;;7.20;54.00;;;;;;5070076;28;20672;-52
2021/03/18 01:23:46;;;;;;;4.43;3.20;;;7.20;54.30;;;;;;5070767;28;20725;-53
2021/03/18 01:26:12;;;;;;;5.13;3.30;;;7.10;54.40;;;;;;5070855;28;20629;-52
2021/03/18 01:28:39;;;;;;;6.73;3.77;;;7.00;55.10;;;;;;5069707;28;20638;-52
2021/03/18 01:31:07;;;;;;;6.77;3.90;;;7.10;57.20;;;;;;5070833;28;20693;-52
2021/03/18 01:33:33;;;;;;;7.33;3.50;;;7.10;57.50;;;;;;5070133;28;20621;-51
2021/03/18 01:36:00;;;;;;;5.13;3.13;;;7.00;56.80;;;;;;5070526;28;20919;-53
2021/03/18 01:38:28;;;;;;;3.73;2.60;;;7.00;56.50;;;;;;5069876;28;20654;-53
2021/03/18 01:40:55;;;;;;;3.40;3.10;;;6.90;56.00;;;;;;5070052;28;20781;-51
2021/03/18 01:43:22;;;;;;;3.53;3.10;;;6.90;56.40;;;;;;5070087;28;20656;-52
2021/03/18 01:45:49;;;;;;;4.67;2.67;;;6.90;56.30;;;;;;5069881;28;20649;-51
2021/03/18 01:48:15;;;;;;;4.63;3.70;;;6.90;56.20;;;;;;5070319;28;20625;-51
2021/03/18 01:50:42;;;;;;;3.50;3.20;;;6.80;55.90;;;;;;5070523;28;21041;-51
2021/03/18 01:53:09;;;;;;;4.93;3.50;;;6.80;56.20;;;;;;5072093;28;20621;-51
2021/03/18 01:55:38;;;;;;;4.67;3.30;;;6.80;56.10;;;;;;5071042;28;20653;-51
2021/03/18 01:58:05;;;;;;;11.50;3.10;;;6.80;56.10;;;;;;5069971;28;20671;-51
2021/03/18 02:00:33;;;;;;;6.30;4.03;;;6.80;56.30;;;;;;5070303;28;20726;-51
2021/03/18 02:03:00;;;;;;;6.73;3.73;;;6.70;56.00;;;;;;5070631;28;20852;-51
2021/03/18 02:05:27;;;;;;;5.73;3.80;;;6.60;55.80;;;;;;5070574;28;20661;-50
2021/03/18 02:07:54;;;;;;;5.80;3.77;;;6.70;55.70;;;;;;5069689;28;20694;-50
2021/03/18 02:10:22;;;;;;;4.10;3.10;;;6.60;55.70;;;;;;5070662;28;20672;-52
2021/03/18 02:12:49;;;;;;;6.70;2.80;;;6.60;55.80;;;;;;5070603;28;20668;-52
2021/03/18 02:15:16;;;;;;;4.77;3.37;;;6.60;56.00;;;;;;5070045;28;20657;-51
2021/03/18 02:17:51;;;;;;;8.00;2.97;;;6.50;56.10;;;;;;5069509;28;20633;-52
2021/03/18 02:21:00;;;;;;;5.33;3.30;;;6.50;56.10;;;;;;5070232;28;20620;-52
2021/03/18 02:24:00;;;;;;;6.00;3.40;;;6.40;56.20;;;;;;5066581;28;20628;-52
2021/03/18 02:26:59;;;;;;;3.90;3.38;;;6.40;57.10;;;;;;5070401;28;20686;-51
2021/03/18 02:29:44;;;;;;;5.20;3.27;;;6.40;57.70;;;;;;5069480;28;20199;-51
2021/03/18 02:32:18;;;;;;;8.13;3.10;;;6.30;57.20;;;;;;5070361;28;20661;-51
2021/03/18 02:34:53;;;;;;;6.13;3.40;;;6.30;57.10;;;;;;5069680;28;20625;-51
2021/03/18 02:37:21;;;;;;;8.30;3.90;;;6.20;57.30;;;;;;5069787;28;20973;-51
2021/03/18 02:39:50;;;;;;;4.73;3.70;;;6.10;57.50;;;;;;5069224;28;21161;-52
2021/03/18 02:42:18;;;;;;;3.90;3.27;;;6.10;57.60;;;;;;5070007;28;21236;-50
2021/03/18 02:44:45;;;;;;;8.83;3.67;;;6.10;57.80;;;;;;5069641;28;20736;-49
2021/03/18 02:47:12;;;;;;;7.70;3.40;;;6.00;58.00;;;;;;5069294;28;20788;-51
2021/03/18 02:49:41;;;;;;;6.10;3.70;;;6.00;58.00;;;;;;5069429;28;20684;-51
2021/03/18 02:52:08;;;;;;;3.60;3.30;;;6.00;58.50;;;;;;5069726;28;20653;-51
2021/03/18 02:54:36;;;;;;;5.03;3.70;;;6.00;58.10;;;;;;5067810;28;20625;-50
2021/03/18 02:57:04;;;;;;;5.67;3.40;;;6.00;58.30;;;;;;5069802;28;20692;-51
2021/03/18 02:59:33;;;;;;;3.77;3.00;;;6.00;58.50;;;;;;5069137;28;20668;-51
2021/03/18 03:01:59;;;;;;;9.53;3.93;;;6.00;59.10;;;;;;5069335;28;20692;-51
2021/03/18 03:04:26;;;;;;;5.20;4.40;;;5.90;58.70;;;;;;5069465;28;20621;-50
2021/03/18 03:06:53;;;;;;;6.50;3.93;;;5.90;59.10;;;;;;5069019;28;20928;-50
2021/03/18 03:09:19;;;;;;;4.80;3.13;;;5.90;59.40;;;;;;5069169;28;20691;-51
2021/03/18 03:11:47;;;;;;;4.80;3.13;;;5.90;59.40;;;;;;5069151;28;20689;-51
2021/03/18 03:14:14;;;;;;;6.20;3.53;;;5.80;59.30;;;;;;5067984;28;20625;-52
2021/03/18 03:16:40;;;;;;;6.50;3.80;;;5.80;59.30;;;;;;5069145;28;20681;-52
2021/03/18 03:19:07;;;;;;;5.43;3.40;;;5.80;59.40;;;;;;5069414;28;20669;-52
2021/03/18 03:21:34;;;;;;;6.23;3.27;;;5.80;59.40;;;;;;5069212;28;21228;-52
2021/03/18 03:24:01;;;;;;;4.10;3.70;;;5.80;59.40;;;;;;5069455;28;20633;-52
2021/03/18 03:26:28;;;;;;;4.17;3.73;;;5.70;59.40;;;;;;5069018;28;20632;-52
2021/03/18 03:28:57;;;;;;;5.80;3.30;;;5.70;59.70;;;;;;5068009;28;20702;-52
2021/03/18 03:31:24;;;;;;;4.07;3.77;;;5.70;59.90;;;;;;5095495;22;20739;-52
2021/03/18 03:33:50;;;;;;;6.23;3.60;;;5.60;60.10;;;;;;5111572;28;20619;-52
2021/03/18 03:36:17;;;;;;;3.65;2.88;;;5.60;60.10;;;;;;5106209;27;20687;-52
2021/03/18 03:38:44;;;;;;;7.07;4.50;;;5.60;60.40;;;;;;5084518;28;20242;-49
2021/03/18 03:41:11;;;;;;;3.92;2.92;;;5.50;60.40;;;;;;5074515;28;21227;-52
2021/03/18 03:43:38;;;;;;;4.33;3.63;;;5.60;60.30;;;;;;5085743;28;20238;-50
2021/03/18 03:46:05;;;;;;;7.03;3.93;;;5.60;60.10;;;;;;5095656;28;20706;-51
2021/03/18 03:48:33;;;;;;;7.13;4.00;;;5.60;60.00;;;;;;5094735;28;20620;-51
2021/03/18 03:51:00;;;;;;;5.35;3.92;;;5.60;59.90;;;;;;5094230;28;21239;-52
2021/03/18 03:53:28;;;;;;;6.77;3.50;;;5.50;59.80;;;;;;5094269;28;20318;-50
2021/03/18 03:55:56;;;;;;;3.60;2.72;;;5.50;59.90;;;;;;5077936;28;20963;-50
2021/03/18 03:58:31;;;;;;;8.73;3.17;;;5.40;60.00;;;;;;5087948;28;20194;-51
2021/03/18 04:01:00;;;;;;;5.50;3.60;;;5.40;60.20;;;;;;5093805;28;20682;-51
2021/03/18 04:03:27;;;;;;;7.80;3.93;;;5.40;60.00;;;;;;5080029;28;20643;-50
2021/03/18 04:05:57;;;;;;;3.97;3.67;;;5.40;60.00;;;;;;5094299;28;20620;-51
2021/03/18 04:08:24;;;;;;;4.03;3.03;;;5.30;60.10;;;;;;5090570;28;20656;-50
2021/03/18 04:10:52;;;;;;;5.97;3.53;;;5.30;61.10;;;;;;5110612;28;21208;-51
2021/03/18 04:13:19;;;;;;;6.10;3.30;;;5.20;61.50;;;;;;5107155;28;20233;-50
2021/03/18 04:15:46;;;;;;;4.17;3.80;;;5.20;61.60;;;;;;5094302;28;20656;-50
2021/03/18 04:18:13;;;;;;;4.57;4.17;;;5.20;62.40;;;;;;5092961;28;21046;-50
2021/03/18 04:20:41;;;;;;;5.93;3.87;;;5.20;63.00;;;;;;5083304;28;21018;-51
2021/03/18 04:23:09;;;;;;;10.33;3.60;;;5.20;62.90;;;;;;5073349;28;20625;-52
2021/03/18 04:25:36;;;;;;;4.07;3.75;;;5.20;62.60;;;;;;5093033;28;20642;-51
2021/03/18 04:28:03;;;;;;;4.93;3.23;;;5.20;62.70;;;;;;5092083;28;20234;-51
2021/03/18 04:30:31;;;;;;;6.95;3.97;;;5.20;63.40;;;;;;5093136;28;20624;-51
2021/03/18 04:32:58;;;;;;;6.15;3.78;;;5.10;62.90;;;;;;5091271;28;20254;-50
2021/03/18 04:35:25;;;;;;;7.17;3.43;;;5.10;63.10;;;;;;5091686;28;20203;-50
2021/03/18 04:37:52;;;;;;;11.48;3.75;;;5.10;63.20;;;;;;5092203;28;20739;-50
2021/03/18 04:40:20;;;;;;;6.47;4.72;;;5.10;63.40;;;;;;5091978;28;20214;-51
2021/03/18 04:42:46;;;;;;;4.53;4.13;;;5.10;63.80;;;;;;5090545;28;20213;-50
2021/03/18 04:45:14;;;;;;;4.00;3.60;;;5.10;64.10;;;;;;5098260;28;20201;-51
2021/03/18 04:47:42;;;;;;;8.38;4.45;;;5.10;64.40;;;;;;5101853;28;20619;-51
2021/03/18 04:50:10;;;;;;;5.47;4.18;;;5.10;64.70;;;;;;5076771;28;20612;-50
2021/03/18 04:52:37;;;;;;;7.18;5.03;;;5.20;64.70;;;;;;5070949;28;20222;-50
2021/03/18 04:55:06;;;;;;;7.97;5.00;;;5.20;64.20;;;;;;5086485;28;20209;-51
2021/03/18 04:57:33;;;;;;;4.55;4.10;;;5.20;63.90;;;;;;5087988;28;20316;-51
2021/03/18 05:00:00;;;;;;;7.40;3.77;;;5.10;64.10;;;;;;5091221;28;20206;-51
2021/03/18 05:02:27;;;;;;;7.00;3.90;;;5.20;65.00;;;;;;5087333;28;20659;-50
2021/03/18 05:04:53;;;;;;;9.50;4.47;;;5.10;64.50;;;;;;5085607;28;20616;-51
2021/03/18 05:07:20;;;;;;;4.55;3.75;;;5.10;64.20;;;;;;5090309;28;20249;-51
2021/03/18 05:09:47;;;;;;;4.33;3.90;;;5.10;63.90;;;;;;5091244;28;20217;-50
2021/03/18 05:12:15;;;;;;;3.67;3.37;;;5.10;63.90;;;;;;5092012;28;21058;-51
2021/03/18 05:14:41;;;;;;;7.10;4.80;;;5.10;64.30;;;;;;5098753;28;20685;-52
2021/03/18 05:17:08;;;;;;;5.87;4.07;;;5.10;64.20;;;;;;5102986;28;20655;-53
2021/03/18 05:19:36;;;;;;;5.07;3.93;;;5.20;64.10;;;;;;5084739;28;20655;-52
2021/03/18 05:22:03;;;;;;;6.50;3.77;;;5.20;63.90;;;;;;5076747;28;21037;-51
2021/03/18 05:24:30;;;;;;;7.87;4.23;;;5.20;63.80;;;;;;5090883;28;20628;-51
2021/03/18 05:26:57;;;;;;;6.85;4.10;;;5.20;63.70;;;;;;5091236;28;21175;-51
2021/03/18 05:29:25;;;;;;;6.03;4.30;;;5.20;63.40;;;;;;5090784;28;20603;-50
2021/03/18 05:31:51;;;;;;;5.27;4.00;;;5.20;63.50;;;;;;5055991;28;586320;-51
2021/03/18 05:34:18;;;;;;;4.40;3.40;;;5.20;64.00;;;;;;5091108;28;20234;-50
2021/03/18 05:36:45;;;;;;;11.10;4.77;;;5.20;64.10;;;;;;5102036;28;20656;-51
2021/03/18 05:39:12;;;;;;;8.33;3.70;;;5.20;64.20;;;;;;5100718;28;20631;-50
2021/03/18 05:41:39;;;;;;;6.23;4.70;;;5.20;64.20;;;;;;5093725;28;20652;-49
2021/03/18 05:44:06;;;;;;;6.23;4.10;;;5.20;64.40;;;;;;5092112;28;20682;-50
2021/03/18 05:46:34;;;;;;;6.90;4.97;;;5.20;64.60;;;;;;5091887;28;20629;-51
2021/03/18 05:49:01;;;;;;;5.30;3.40;;;5.20;64.80;;;;;;5091109;28;20662;-51
2021/03/18 05:51:27;;;;;;;7.18;4.47;;;5.10;65.40;;;;;;5090335;28;20757;-50
2021/03/18 05:53:54;;;;;;;7.15;4.32;;;5.10;66.00;;;;;;5091211;28;20206;-51
2021/03/18 05:56:23;;;;;;;3.92;3.45;;;5.10;66.10;;;;;;5086632;28;20627;-50
2021/03/18 05:58:50;;;;;;;8.10;4.97;;;5.10;66.30;;;;;;5075764;28;20202;-51
2021/03/18 06:01:18;;;;;;;6.20;3.63;;;5.10;67.00;;;;;;5087088;28;20230;-51
2021/03/18 06:03:46;;;;;;;4.83;3.63;;;5.10;67.90;;;;;;5071578;28;20623;-51
2021/03/18 06:06:13;;;;;;;7.32;4.18;;;5.10;68.50;;;;;;5071186;28;20618;-50
2021/03/18 06:08:40;;;;;;;4.70;4.20;;;5.10;68.40;;;;;;5078282;28;20209;-51
2021/03/18 06:11:08;;;;;;;8.07;4.50;;;5.10;68.10;;;;;;5090849;28;20306;-50
2021/03/18 06:13:35;;;;;;;9.85;4.78;;;5.10;67.80;;;;;;5094501;28;20647;-51
2021/03/18 06:16:01;;;;;;;4.80;4.15;;;5.20;67.40;;;;;;5104401;28;20244;-51
2021/03/18 06:18:28;;;;;;;6.00;4.00;;;5.20;67.00;;;;;;5093309;28;20209;-50
2021/03/18 06:20:56;;;;;;;8.80;4.00;;;5.20;66.50;;;;;;5099128;28;20222;-50
2021/03/18 06:23:23;;;;;;;5.73;3.80;;;5.10;65.50;;;;;;5090896;28;20649;-51
2021/03/18 06:25:50;;;;;;;4.00;3.25;;;5.10;65.50;;;;;;5089439;28;20627;-52
2021/03/18 06:28:19;;;;;;;5.67;4.40;;;5.00;65.30;;;;;;5088143;28;20541;-52
2021/03/18 06:31:03;;;;;;;5.43;3.80;;;5.00;65.50;;;;;;5093512;28;20656;-52
2021/03/18 06:33:31;;;;;;;3.92;3.58;;;5.00;66.50;;;;;;5092684;28;20707;-52
2021/03/18 06:35:58;;;;;;;6.63;4.87;;;5.10;67.10;;;;;;5090950;28;20228;-52
2021/03/18 06:38:26;;;;;;;10.60;4.07;;;5.10;67.10;;;;;;5098214;28;21164;-52
2021/03/18 06:40:53;;;;;;;5.27;4.23;;;5.10;66.70;;;;;;5090692;28;20728;-51
2021/03/18 06:43:34;;;;;;;7.72;4.47;;;5.10;66.60;;;;;;5082467;28;20620;-51
2021/03/18 06:46:00;;;;;;;6.33;4.73;;;5.20;67.10;;;;;;5085496;28;20212;-52
2021/03/18 06:48:27;;;;;;;13.97;4.40;;;5.20;67.70;;;;;;5085085;28;20616;-52
2021/03/18 06:50:54;;;;;;;6.47;4.28;;;5.20;67.80;;;;;;5086765;28;20643;-50
2021/03/18 06:53:23;;;;;;;5.40;4.47;;;5.30;67.90;;;;;;5095507;28;20778;-51
2021/03/18 06:55:50;;;;;;;6.20;5.20;;;5.40;68.00;;;;;;5087134;28;21175;-52
2021/03/18 06:58:18;;;;;;;11.47;4.37;;;5.60;68.50;;;;;;5090186;28;20656;-51
2021/03/18 07:00:46;;;;;;;8.73;5.63;;;5.70;67.50;;;;;;5095943;28;21234;-51
2021/03/18 07:03:23;;;;;;;14.90;6.90;;;5.70;66.40;;;;;;5093339;28;20634;-51
2021/03/18 07:05:50;;;;;;;9.70;7.57;;;5.80;66.00;;;;;;5088188;28;20709;-52
2021/03/18 07:08:26;;;;;;;10.50;5.87;;;5.90;66.20;;;;;;5081772;28;20613;-51
2021/03/18 07:10:53;;;;;;;5.70;5.20;;;5.90;67.10;;;;;;5092166;28;20721;-51
2021/03/18 07:13:22;;;;;;;9.30;6.57;;;6.20;67.80;;;;;;5092668;28;20653;-52
2021/03/18 07:15:50;;;;;;;11.73;6.20;;;6.40;67.40;;;;;;5094536;28;20664;-52
2021/03/18 07:18:17;;;;;;;8.67;6.13;;;6.70;66.30;;;;;;5088976;28;20724;-52
2021/03/18 07:21:00;;;;;;;10.43;6.87;;;7.00;65.50;;;;;;5094736;28;20709;-51
2021/03/18 07:23:39;;;;;;;6.50;5.60;;;7.20;64.30;;;;;;5096883;28;20627;-51
2021/03/18 07:26:24;;;;;;;6.20;5.60;;;7.40;63.30;;;;;;5089404;28;21403;-52
2021/03/18 07:28:52;;;;;;;11.20;6.10;;;7.70;62.00;;;;;;5095261;28;21184;-51
2021/03/18 07:31:19;;;;;;;5.90;4.87;;;7.90;60.80;;;;;;5093171;28;20719;-51
2021/03/18 07:33:46;;;;;;;7.17;5.73;;;8.10;59.90;;;;;;5097356;28;20697;-52
2021/03/18 07:36:13;;;;;;;8.80;5.83;;;8.40;59.00;;;;;;5100995;27;20628;-52
2021/03/18 07:38:41;;;;;;;7.53;5.87;;;8.70;57.80;;;;;;5110278;28;21209;-52
2021/03/18 07:41:11;;;;;;;10.33;6.30;;;8.90;56.80;;;;;;5107508;28;20704;-52
2021/03/18 07:43:38;;;;;;;8.97;7.20;;;9.20;55.70;;;;;;5114224;27;20609;-52
2021/03/18 07:46:05;;;;;;;9.63;6.70;;;9.30;53.90;;;;;;5108950;28;20620;-51
2021/03/18 07:48:31;;;;;;;9.37;6.20;;;9.30;53.10;;;;;;5092446;28;20632;-52
2021/03/18 07:50:59;;;;;;;9.17;6.27;;;9.20;52.50;;;;;;5094030;28;20660;-52
2021/03/18 07:53:26;;;;;;;7.53;6.93;;;9.10;52.90;;;;;;5091933;28;20972;-52
2021/03/18 07:55:53;;;;;;;8.37;6.93;;;9.10;53.40;;;;;;5102084;28;20689;-53
2021/03/18 07:58:37;;;;;;;10.07;6.37;;;9.00;53.60;;;;;;5094389;28;20648;-50
2021/03/18 08:01:04;;;;;;;8.30;6.57;;;8.90;53.40;;;;;;5090903;28;20708;-51
2021/03/18 08:03:31;;;;;;;9.50;6.50;;;8.90;53.70;;;;;;5098918;28;21009;-51
2021/03/18 08:05:58;;;;;;;11.80;6.13;;;8.80;53.60;;;;;;5106019;28;20980;-51
2021/03/18 08:08:41;;;;;;;7.70;6.40;;;8.80;53.70;;;;;;5112657;27;21236;-50
2021/03/18 08:11:12;;;;;;;8.57;6.63;;;8.80;54.00;;;;;;5111933;28;20643;-52
2021/03/18 08:13:39;;;;;;;7.67;6.13;;;8.80;53.90;;;;;;5112255;28;20626;-51
2021/03/18 08:16:07;;;;;;;8.20;6.23;;;8.70;53.60;;;;;;5111531;28;20622;-51
2021/03/18 08:18:36;;;;;;;7.17;6.47;;;8.70;53.50;;;;;;5112153;28;20722;-51
2021/03/18 08:21:05;;;;;;;8.80;6.30;;;8.70;53.10;;;;;;5111514;28;20707;-51
2021/03/18 08:23:38;;;;;;;6.67;5.47;;;8.60;53.10;;;;;;5112289;27;20638;-51
2021/03/18 08:26:06;;;;;;;9.57;6.37;;;8.60;53.20;;;;;;5113506;27;20634;-51
2021/03/18 08:28:41;;;;;;;12.60;5.97;;;8.70;53.20;;;;;;5110078;27;20660;-51
2021/03/18 08:31:10;;;;;;;6.80;6.10;;;8.70;52.90;;;;;;5093025;28;20709;-51
2021/03/18 08:33:40;;;;;;;8.50;5.90;;;8.80;53.20;;;;;;5092983;28;20624;-52
2021/03/18 08:36:24;;;;;;;6.40;5.67;;;8.80;52.50;;;;;;5090982;28;21262;-51
2021/03/18 08:38:51;;;;;;;8.20;5.50;;;8.80;52.00;;;;;;5093183;28;20616;-52
2021/03/18 08:41:38;;;;;;;7.40;5.70;;;8.80;52.20;;;;;;5092112;28;20648;-52
2021/03/18 08:44:17;;;;;;;10.47;6.17;;;8.80;52.50;;;;;;5093716;28;20685;-52
2021/03/18 08:46:48;;;;;;;9.33;5.40;;;8.80;52.00;;;;;;5093371;28;20668;-54
2021/03/18 08:49:28;;;;;;;8.13;6.13;;;8.90;51.90;;;;;;5092531;28;20632;-52
2021/03/18 08:51:55;;;;;;;11.40;6.37;;;8.90;51.30;;;;;;5092487;28;20648;-51
2021/03/18 08:54:54;;;;;;;11.17;5.60;;;8.90;51.30;;;;;;5090617;28;20678;-51
2021/03/18 08:57:26;;;;;;;5.47;4.90;;;9.00;51.50;;;;;;5092809;28;20660;-52
2021/03/18 08:59:54;;;;;;;7.20;4.90;;;9.20;51.60;;;;;;5092096;28;20759;-51
2021/03/18 09:02:24;;;;;;;6.03;5.20;;;9.40;50.80;;;;;;5092328;28;20667;-52
2021/03/18 09:04:51;;;;;;;8.07;4.30;;;9.50;50.00;;;;;;5092340;28;20640;-51
2021/03/18 09:07:20;;;;;;;4.80;4.03;;;9.60;49.90;;;;;;5092471;28;20617;-52
2021/03/18 09:09:47;;;;;;;5.10;4.60;;;9.90;49.40;;;;;;5092193;28;20630;-51
2021/03/18 09:12:14;;;;;;;5.20;4.47;;;10.10;48.50;;;;;;5092149;28;20646;-51
2021/03/18 09:14:41;;;;;;;4.97;3.60;;;10.40;48.20;;;;;;5091983;28;20628;-52
2021/03/18 09:17:09;;;;;;;8.20;4.97;;;10.70;47.20;;;;;;5091044;28;20658;-50
2021/03/18 09:19:36;;;;;;;7.27;5.70;;;10.90;46.20;;;;;;5091260;28;20620;-50
2021/03/18 09:22:03;;;;;;;5.13;3.80;;;11.10;44.90;;;;;;5090893;28;20652;-50
2021/03/18 09:24:34;;;;;;;5.17;3.73;;;11.30;44.30;;;;;;5089934;28;20632;-50
2021/03/18 09:27:05;;;;;;;7.30;3.93;;;11.40;46.70;;;;;;5092455;28;20963;-50
2021/03/18 09:29:32;;;;;;;4.87;3.00;;;11.50;41.90;;;;;;5091743;28;20631;-51
2021/03/18 09:32:03;;;;;;;5.53;3.20;;;11.30;42.30;;;;;;5091938;28;21243;-50
2021/03/18 09:34:33;;;;;;;6.77;4.20;;;11.30;44.70;;;;;;5091505;28;21240;-50
2021/03/18 09:37:00;;;;;;;2.93;2.23;;;11.30;43.10;;;;;;5092211;28;21019;-52
2021/03/18 09:39:27;;;;;;;4.30;3.57;;;11.30;42.90;;;;;;5091494;28;21136;-51
2021/03/18 09:42:01;;;;;;;7.20;3.10;;;11.30;42.00;;;;;;5087253;28;21055;-50
2021/03/18 09:44:29;;;;;;;5.77;3.60;;;11.30;41.60;;;;;;5089690;28;20624;-49
2021/03/18 09:46:57;;;;;;;4.00;3.60;;;11.40;42.20;;;;;;5091102;28;20621;-51
2021/03/18 09:49:27;;;;;;;2.80;2.40;;;11.60;42.30;;;;;;5090976;28;20670;-51
2021/03/18 09:51:55;;;;;;;3.67;3.33;;;11.80;41.00;;;;;;5091437;28;20655;-52
2021/03/18 09:54:23;;;;;;;4.73;4.23;;;11.50;39.50;;;;;;5091771;28;20621;-50
2021/03/18 09:56:51;;;;;;;4.67;3.87;;;11.40;40.40;;;;;;5090994;28;20665;-49
2021/03/18 09:59:19;;;;;;;3.60;3.30;;;11.40;41.10;;;;;;5090837;28;20624;-50
2021/03/18 10:01:46;;;;;;;5.17;2.43;;;11.70;41.30;;;;;;5091317;28;20736;-50
2021/03/18 10:04:15;;;;;;;3.30;3.07;;;11.80;40.60;;;;;;5091722;28;20658;-51
2021/03/18 10:06:44;;;;;;;3.73;3.53;;;11.60;39.00;;;;;;5090936;28;20956;-50
2021/03/18 10:09:18;;;;;;;6.00;3.37;;;11.50;39.70;;;;;;5091060;28;20632;-49
2021/03/18 10:11:44;;;;;;;7.43;3.50;;;11.30;39.10;;;;;;5091193;28;20659;-49
2021/03/18 10:14:12;;;;;;;8.27;3.90;;;11.30;40.50;;;;;;5091399;28;20616;-51
2021/03/18 10:16:38;;;;;;;3.47;3.17;;;11.40;40.80;;;;;;5091073;28;20631;-51
2021/03/18 10:19:05;;;;;;;4.80;3.40;;;11.40;41.10;;;;;;5090813;28;20987;-51
2021/03/18 10:21:32;;;;;;;5.90;3.20;;;11.40;40.80;;;;;;5091225;28;20763;-51
2021/03/18 10:23:59;;;;;;;3.63;2.90;;;11.40;40.40;;;;;;5091648;28;20660;-50
2021/03/18 10:26:27;;;;;;;4.90;3.20;;;11.40;40.60;;;;;;5091318;28;20635;-53
2021/03/18 10:28:58;;;;;;;3.97;3.70;;;11.40;41.10;;;;;;5091115;28;20673;-49
2021/03/18 10:31:25;;;;;;;5.93;4.20;;;11.40;41.30;;;;;;5090747;28;21243;-52
2021/03/18 10:33:52;;;;;;;6.50;4.50;;;11.40;41.50;;;;;;5090953;28;20648;-53
2021/03/18 10:36:31;;;;;;;4.23;3.87;;;11.50;42.10;;;;;;5090722;28;20617;-52
2021/03/18 10:39:02;;;;;;;9.70;5.47;;;11.40;42.10;;;;;;5090281;28;20783;-51
2021/03/18 10:41:29;;;;;;;7.73;4.63;;;11.30;42.90;;;;;;5074540;28;20651;-49
2021/03/18 10:43:56;;;;;;;6.17;4.37;;;11.40;43.70;;;;;;5071727;28;20752;-49
2021/03/18 10:46:27;;;;;;;7.43;4.37;;;11.30;43.70;;;;;;5075211;28;20629;-49
2021/03/18 10:48:54;;;;;;;6.73;4.43;;;11.30;43.60;;;;;;5077622;28;20625;-49
2021/03/18 10:51:21;;;;;;;3.83;3.53;;;11.40;44.00;;;;;;5095977;28;20668;-48
2021/03/18 10:53:48;;;;;;;5.90;4.03;;;11.40;43.90;;;;;;5094833;28;20643;-51
2021/03/18 10:56:17;;;;;;;5.03;4.20;;;11.40;43.90;;;;;;5095185;28;20631;-51
2021/03/18 10:58:45;;;;;;;6.20;5.10;;;11.40;43.90;;;;;;5094871;28;20725;-52
2021/03/18 11:01:13;;;;;;;5.40;4.47;;;11.50;43.60;;;;;;5095875;28;20695;-50
2021/03/18 11:03:40;;;;;;;4.60;3.47;;;11.40;43.80;;;;;;5095605;28;20636;-51
2021/03/18 11:06:14;;;;;;;4.27;3.90;;;11.30;42.90;;;;;;5095367;28;21140;-50
2021/03/18 11:08:41;;;;;;;5.90;4.03;;;11.20;43.00;;;;;;5094737;28;20628;-50
2021/03/18 11:11:12;;;;;;;6.20;4.67;;;11.10;42.20;;;;;;5095411;28;21211;-52
2021/03/18 11:13:42;;;;;;;7.97;4.63;;;11.20;42.80;;;;;;5095094;28;20629;-50
2021/03/18 11:16:10;;;;;;;7.47;6.77;;;11.20;42.50;;;;;;5094720;28;20674;-49
2021/03/18 11:18:39;;;;;;;7.80;5.27;;;11.40;42.20;;;;;;5093870;28;21050;-49
2021/03/18 11:21:18;;;;;;;9.10;4.50;;;11.70;41.60;;;;;;5095008;28;20769;-51
2021/03/18 11:23:45;;;;;;;4.60;3.70;;;11.90;40.30;;;;;;5095072;28;20801;-52
2021/03/18 11:26:12;;;;;;;10.07;7.40;;;12.10;40.40;;;;;;5095057;28;20623;-50
2021/03/18 11:28:47;;;;;;;6.03;5.60;;;12.30;41.10;;;;;;5094795;28;20628;-49
2021/03/18 11:31:16;;;;;;;8.27;5.53;;;12.60;40.50;;;;;;5094546;28;20667;-51
2021/03/18 11:33:43;;;;;;;6.73;5.30;;;13.20;40.60;;;;;;5092575;28;20639;-51
2021/03/18 11:36:10;;;;;;;22.97;19.00;;;13.70;39.60;;;;;;5094372;28;20616;-50
2021/03/18 11:38:37;;;;;;;6.30;5.23;;;14.00;39.60;;;;;;5094811;28;20652;-49
2021/03/18 11:41:04;;;;;;;14.13;11.00;;;13.80;37.80;;;;;;5087218;28;20991;-49
2021/03/18 11:43:31;;;;;;;5.97;5.37;;;13.70;39.80;;;;;;5080345;28;20666;-52
2021/03/18 11:45:58;;;;;;;8.07;6.77;;;13.80;38.70;;;;;;5090989;28;20624;-52
2021/03/18 11:48:26;;;;;;;5.80;5.20;;;14.10;38.00;;;;;;5090101;28;20624;-53
2021/03/18 11:50:52;;;;;;;7.43;6.07;;;14.90;37.90;;;;;;5084928;28;20718;-53
2021/03/18 11:53:19;;;;;;;5.33;4.83;;;15.60;36.30;;;;;;5072355;28;20983;-53
2021/03/18 11:55:46;;;;;;;6.50;4.53;;;16.10;34.90;;;;;;5072052;28;21162;-52
2021/03/18 11:58:14;;;;;;;6.40;4.40;;;16.20;34.00;;;;;;5092629;28;21026;-52
2021/03/18 12:00:40;;;;;;;6.03;5.53;;;16.00;33.40;;;;;;5093056;28;21283;-52
2021/03/18 12:03:08;;;;;;;4.87;4.40;;;15.70;33.80;;;;;;5092892;28;20677;-52
2021/03/18 12:05:36;;;;;;;5.67;5.17;;;15.40;33.90;;;;;;5093408;28;21028;-53
2021/03/18 12:08:03;;;;;;;6.10;5.50;;;15.20;34.20;;;;;;5092368;28;20690;-53
2021/03/18 12:10:30;;;;;;;6.07;5.50;;;14.90;34.10;;;;;;5093275;28;21229;-52
2021/03/18 12:12:57;;;;;;;4.73;4.33;;;14.60;34.00;;;;;;5091463;28;20682;-53
2021/03/18 12:15:24;;;;;;;4.77;4.47;;;14.20;34.40;;;;;;5093225;28;20640;-53
2021/03/18 12:17:51;;;;;;;7.67;5.20;;;13.90;35.80;;;;;;5091584;28;20803;-52
2021/03/18 12:20:18;;;;;;;6.23;5.10;;;13.50;36.90;;;;;;5092973;28;20654;-51
2021/03/18 12:22:46;;;;;;;6.63;5.20;;;13.20;38.00;;;;;;5092386;28;20670;-52
2021/03/18 12:25:14;;;;;;;5.20;4.70;;;13.00;38.60;;;;;;5074462;28;20632;-52
2021/03/18 12:27:41;;;;;;;6.70;5.80;;;12.80;39.10;;;;;;5072649;28;21262;-52
2021/03/18 12:30:09;;;;;;;6.27;4.87;;;12.70;39.60;;;;;;5072586;28;21034;-53
2021/03/18 12:32:36;;;;;;;6.00;4.97;;;12.50;40.20;;;;;;5072098;28;20733;-53
2021/03/18 12:35:04;;;;;;;9.43;6.60;;;12.50;40.20;;;;;;5073689;28;20629;-53
2021/03/18 12:37:30;;;;;;;6.67;5.80;;;12.40;40.70;;;;;;5092239;28;20614;-52
2021/03/18 12:39:58;;;;;;;15.80;6.20;;;12.40;40.80;;;;;;5092549;28;20628;-53
2021/03/18 12:42:25;;;;;;;8.10;5.20;;;12.40;41.10;;;;;;5091509;28;20658;-53
2021/03/18 12:44:52;;;;;;;6.33;5.83;;;12.40;40.90;;;;;;5092904;28;20661;-51
2021/03/18 12:47:19;;;;;;;5.80;5.30;;;12.30;40.80;;;;;;5091591;28;21493;-53
2021/03/18 12:49:46;;;;;;;6.10;5.57;;;12.50;40.90;;;;;;5092056;28;20620;-54
2021/03/18 12:52:13;;;;;;;8.50;5.70;;;12.90;40.90;;;;;;5092602;28;20679;-52
2021/03/18 12:54:39;;;;;;;7.97;5.70;;;13.40;40.70;;;;;;5091981;28;20639;-53
2021/03/18 12:57:07;;;;;;;5.60;5.00;;;13.80;39.00;;;;;;5092976;28;20932;-53
2021/03/18 12:59:34;;;;;;;7.07;5.30;;;14.00;37.20;;;;;;5091442;28;21076;-53